Las Cruces, NM (88001)

4:53 PM MST on January 21, 2017 (GMT -0700)
Las Cruces | | Change Station
Active Advisory: High Wind Warning Active Notice: Public Information Statement

Elev 4022 ft 32.33 °N, 106.76 °W | Updated 1 minute ago

Partly Cloudy
Partly Cloudy
46.7 °F
Feels Like 40 °F
N
17.0
Wind Variable Wind from West
Gusts 18.0 mph

Today
High -- | Low -- °F
--% Chance of Precip.
Yesterday
High -- | Low -- °F
Precip. -- in
Pressure 29.72 in
Visibility 10.0 miles
Clouds Scattered Clouds 6000 ft
Windchill 40 °F
Dew Point 28 °F
Humidity 48%
Rainfall 0.15 in
Snow Depth Not available.
7:06 AM 5:30 PM
Waning Crescent, 31% visible
METAR KLRU 212335Z AUTO 27036G47KT 10SM SCT060 06/M03 A2972 RMK AO2 T00641026
Pressure 29.72 in
Visibility 10.0 miles
Clouds Scattered Clouds 6000 ft
Windchill 40 °F
Dew Point 28 °F
Humidity 48%
Rainfall 0.15 in
Snow Depth Not available.
7:06 AM 5:30 PM
Waning Crescent, 31% visible
METAR KLRU 212335Z AUTO 27036G47KT 10SM SCT060 06/M03 A2972 RMK AO2 T00641026

Get Your Daily Forecast Email!

Thanks for signing up!

Be on the lookout for a verification email in your inbox.

You'll start receiving the daily forecast at 8 AM.

×

10-Day Weather Forecast

Almanac

Astronomy

Jan. 21, 2017 Rise Set
Actual Time
Civil Twilight
Nautical Twilight
Astronomical Twilight
Moon
Length of Visible Light
Length of Day
Tomorrow will be .
, % of the Moon is Illuminated

Today's Extremes

State Highs State Lows

Community

WunderPhotos

Upload Photos

1,962,540 photos uploaded!

WunderBlog® & News

Nearby

Air Quality

  Air Quality AQ Index Pollutant
Not available.

Snow Depth

Station Depth Elevation

Earthquake Activity

City Distance Mag. Time & Date
Minimum magnitude displayed is 2.5.

Coastal Water Temperatures

Place Temperature

Stations

Nearby Weather Stations

Station Location Temp. Windchill Dew Point Humidity Wind Precip. Elev Updated Type
                   

Watches & Warnings

High Wind Warning
Issued: 3:14 PM MST Jan. 21, 2017 – National Weather Service

... High Wind Warning remains in effect until 5 am MST Sunday...

* timing... the strongest winds will continue through early
Sunday morning before tapering off.

* Winds... strong winds of 35 to 45 mph with gusts to 60 or
higher will be possible.

* Impacts... the very strong winds may lead to isolated property
damage and to scattered power outages. The winds will also
make driving hazardous and we could see a few large commercial
vehicles being blown off the Road.

Precautionary/preparedness actions...

A High Wind Warning means a hazardous high wind event is expected
or occurring. Sustained wind speeds of at least 40 mph or gusts
of 58 mph or more can lead to property damage.